createdAt,value
2019-05-02T06:50:54.595Z,16.97
2019-05-02T07:04:22.906Z,21.30
2019-05-02T07:07:31.395Z,20.37
2019-05-02T07:11:01.419Z,18.60
2019-05-02T08:02:30.954Z,16.37
2019-05-02T08:07:21.113Z,15.87
2019-05-02T08:39:41.696Z,17.03
2019-05-02T13:23:42.595Z,11.47
2019-05-02T14:57:37.235Z,11.63
2019-05-02T15:08:53.812Z,10.40
2019-05-02T15:38:52.591Z,11.43
2019-05-02T16:22:49.591Z,11.43
2019-05-02T16:26:08.725Z,10.47
2019-05-02T20:04:09.356Z,9.20
2019-05-02T20:42:13.960Z,9.10
2019-05-02T20:45:28.010Z,9.57
2019-05-02T20:48:23.769Z,9.60
2019-05-02T20:51:19.619Z,9.60
2019-05-02T20:54:09.087Z,9.40
2019-05-02T20:57:06.909Z,9.87
2019-05-02T21:00:28.723Z,9.43
2019-05-02T21:03:45.215Z,8.97
2019-05-02T21:07:06.515Z,9.73
2019-05-02T21:10:41.625Z,9.30
2019-05-02T21:14:12.685Z,9.23
2019-05-02T21:17:58.114Z,9.03
2019-05-02T21:20:12.960Z,9.13
2019-05-02T21:24:02.086Z,9.53
2019-05-02T21:27:11.563Z,9.70
2019-05-02T21:30:21.718Z,9.10
2019-05-02T21:33:42.540Z,9.40
2019-05-02T21:36:40.188Z,9.53
2019-05-02T21:39:27.921Z,9.10
2019-05-02T21:42:16.354Z,9.70
2019-05-02T21:45:10.470Z,9.33
2019-05-02T21:48:13.039Z,9.60
2019-05-02T21:51:04.397Z,9.23
2019-05-02T21:54:13.238Z,9.27
2019-05-02T21:57:16.150Z,10.17
2019-05-02T22:00:06.463Z,9.50
2019-05-02T22:03:05.400Z,9.60
2019-05-02T22:05:58.095Z,9.43
2019-05-02T22:08:43.089Z,9.47
2019-05-02T22:11:32.133Z,9.30
2019-05-02T22:14:18.843Z,9.67
2019-05-02T22:17:08.268Z,9.93
2019-05-02T22:20:02.432Z,9.63
2019-05-02T22:22:55.174Z,9.93
2019-05-02T22:25:39.591Z,10.10
2019-05-02T22:28:30.186Z,9.70
2019-05-02T22:31:26.702Z,9.90
2019-05-02T22:34:18.230Z,10.03
2019-05-02T22:37:12.479Z,9.70
2019-05-02T22:40:04.047Z,9.77
2019-05-02T22:42:52.361Z,10.07
2019-05-02T22:45:43.877Z,10.00
2019-05-02T22:48:31.869Z,10.00
2019-05-02T22:51:19.535Z,9.90
2019-05-02T22:54:23.332Z,9.70
2019-05-02T22:56:58.699Z,9.90
2019-05-02T22:59:46.319Z,9.60
2019-05-02T23:02:36.664Z,9.73
2019-05-02T23:05:32.116Z,10.03
2019-05-02T23:08:13.078Z,9.40
2019-05-02T23:11:06.327Z,9.53
2019-05-02T23:13:53.256Z,9.80
2019-05-02T23:16:42.677Z,9.77
2019-05-02T23:19:31.578Z,9.57
2019-05-02T23:22:18.680Z,9.47
2019-05-02T23:25:32.200Z,10.67
2019-05-02T23:28:24.232Z,9.50
2019-05-02T23:31:14.113Z,9.57
2019-05-02T23:34:07.300Z,9.60
2019-05-02T23:37:35.140Z,9.57
2019-05-02T23:40:19.998Z,9.50
2019-05-02T23:43:06.719Z,9.20
2019-05-02T23:45:55.935Z,9.70
2019-05-02T23:48:42.749Z,9.43
2019-05-02T23:51:32.048Z,9.80
2019-05-02T23:54:19.111Z,9.40
2019-05-02T23:57:07.298Z,9.60
2019-05-02T23:59:54.870Z,9.60
